createdAt,value
2023-05-13T00:01:03.467Z,1.55
2023-05-13T00:03:30.644Z,1.40
2023-05-13T00:05:59.991Z,1.25
2023-05-13T00:08:26.984Z,1.73
2023-05-13T00:10:54.319Z,1.75
2023-05-13T00:13:21.583Z,1.90
2023-05-13T00:15:48.555Z,1.73
2023-05-13T00:18:15.969Z,1.80
2023-05-13T00:20:43.124Z,1.63
2023-05-13T00:23:10.197Z,1.75
2023-05-13T00:25:38.209Z,1.90
2023-05-13T00:28:05.580Z,1.52
2023-05-13T00:30:32.917Z,1.75
2023-05-13T00:33:00.124Z,1.90
2023-05-13T00:35:27.293Z,1.58
2023-05-13T00:37:54.757Z,1.70
2023-05-13T00:40:25.592Z,1.58
2023-05-13T00:42:53.684Z,1.75
2023-05-13T00:45:21.112Z,1.20
2023-05-13T00:47:49.507Z,1.45
2023-05-13T00:50:16.806Z,1.80
2023-05-13T00:52:44.411Z,1.85
2023-05-13T00:55:11.913Z,1.55
2023-05-13T00:57:40.559Z,1.80
2023-05-13T01:00:08.843Z,1.80
2023-05-13T01:02:52.960Z,1.60
2023-05-13T01:05:50.446Z,1.67
2023-05-13T01:08:58.938Z,1.75
2023-05-13T01:11:36.323Z,1.77
2023-05-13T01:14:16.828Z,1.92
2023-05-13T01:16:55.675Z,1.60
2023-05-13T01:19:55.408Z,1.90
2023-05-13T01:22:22.467Z,1.60
2023-05-13T01:24:50.571Z,1.73
2023-05-13T01:27:17.862Z,1.85
2023-05-13T01:29:46.122Z,1.65
2023-05-13T01:32:18.550Z,1.55
2023-05-13T01:34:46.387Z,1.58
2023-05-13T01:37:13.713Z,1.50
2023-05-13T01:39:42.646Z,1.63
2023-05-13T01:42:14.211Z,1.50
2023-05-13T01:44:42.528Z,1.45
2023-05-13T01:47:09.985Z,1.75
2023-05-13T01:49:36.994Z,1.25
2023-05-13T01:52:04.686Z,1.35
2023-05-13T01:54:32.460Z,1.25
2023-05-13T01:57:05.655Z,1.50
2023-05-13T01:59:33.085Z,1.75
2023-05-13T02:02:00.335Z,1.55
2023-05-13T02:04:27.745Z,1.50
2023-05-13T02:06:54.894Z,1.30
2023-05-13T02:09:22.669Z,1.95
2023-05-13T02:11:49.605Z,1.40
2023-05-13T02:14:16.684Z,1.70
2023-05-13T02:16:44.063Z,1.92
2023-05-13T02:19:11.170Z,1.50
2023-05-13T02:21:38.299Z,1.30
2023-05-13T02:24:07.838Z,1.70
2023-05-13T02:26:34.918Z,1.60
2023-05-13T02:29:01.961Z,1.73
2023-05-13T02:31:29.762Z,1.35
2023-05-13T02:33:56.733Z,1.75
2023-05-13T02:36:23.772Z,2.05
2023-05-13T02:38:50.982Z,1.98
2023-05-13T02:41:17.994Z,1.60
2023-05-13T02:43:44.982Z,1.63
2023-05-13T02:46:11.997Z,2.03
2023-05-13T02:48:38.963Z,1.77
2023-05-13T02:51:06.242Z,2.25
2023-05-13T02:53:33.383Z,2.63
2023-05-13T02:56:04.225Z,2.47
2023-05-13T02:58:31.264Z,2.10
2023-05-13T03:00:59.353Z,2.50
2023-05-13T03:03:26.519Z,2.15
2023-05-13T03:05:53.582Z,2.60
2023-05-13T03:08:21.148Z,2.63
2023-05-13T03:10:48.174Z,2.55
2023-05-13T03:13:15.216Z,2.92
2023-05-13T03:15:44.441Z,2.67
2023-05-13T03:18:12.049Z,2.50
2023-05-13T03:20:39.311Z,3.00
2023-05-13T03:23:06.677Z,2.90
2023-05-13T03:25:34.338Z,2.13
2023-05-13T03:28:03.372Z,2.58
2023-05-13T03:30:34.051Z,1.90
2023-05-13T03:33:05.786Z,1.75
2023-05-13T03:35:32.826Z,1.98
2023-05-13T03:37:59.953Z,2.25
2023-05-13T03:40:26.872Z,2.13
2023-05-13T03:42:53.854Z,2.20
2023-05-13T03:45:23.524Z,2.20
2023-05-13T03:47:53.202Z,1.65
2023-05-13T03:50:22.918Z,2.03
2023-05-13T03:52:51.615Z,2.75
2023-05-13T03:55:19.923Z,2.45
2023-05-13T03:57:49.248Z,2.30
2023-05-13T04:00:19.030Z,2.45
2023-05-13T04:02:48.360Z,2.28
2023-05-13T04:05:15.583Z,2.35
2023-05-13T04:07:46.602Z,1.73
2023-05-13T04:10:15.375Z,2.10
2023-05-13T04:12:43.115Z,1.60
2023-05-13T04:15:10.626Z,2.08
2023-05-13T04:17:38.141Z,2.10
2023-05-13T04:20:08.369Z,2.45
2023-05-13T04:22:35.546Z,2.10
2023-05-13T04:25:02.632Z,2.17
2023-05-13T04:27:29.611Z,1.90
2023-05-13T04:30:03.763Z,2.30
2023-05-13T04:32:33.127Z,2.00
2023-05-13T04:35:00.560Z,2.20
2023-05-13T04:37:29.530Z,2.58
2023-05-13T04:39:59.447Z,2.63
2023-05-13T04:42:27.603Z,2.58
2023-05-13T04:44:55.071Z,2.38
2023-05-13T04:47:22.709Z,2.60
2023-05-13T04:49:49.820Z,2.60
2023-05-13T04:52:17.309Z,2.83
2023-05-13T04:54:44.586Z,2.60
2023-05-13T04:57:12.016Z,2.20
2023-05-13T04:59:39.071Z,2.30
2023-05-13T05:02:07.739Z,2.22
2023-05-13T05:04:34.791Z,2.55
2023-05-13T05:07:03.876Z,2.10
2023-05-13T05:09:31.506Z,2.10
2023-05-13T05:11:59.561Z,2.90
2023-05-13T05:14:28.847Z,2.45
2023-05-13T05:16:58.038Z,2.20
2023-05-13T05:19:25.175Z,2.40
2023-05-13T05:21:54.504Z,2.60
2023-05-13T05:24:24.823Z,2.25
2023-05-13T05:26:51.844Z,2.70
2023-05-13T05:29:19.677Z,2.25
2023-05-13T05:31:47.497Z,2.50
2023-05-13T05:34:20.724Z,2.10
2023-05-13T05:36:47.803Z,2.28
2023-05-13T05:39:16.121Z,2.53
2023-05-13T05:41:43.116Z,2.17
2023-05-13T05:44:10.231Z,2.53
2023-05-13T05:46:37.547Z,2.60
2023-05-13T05:49:04.707Z,2.40
2023-05-13T05:51:34.623Z,2.55
2023-05-13T05:54:03.722Z,2.55
2023-05-13T05:56:31.499Z,2.85
2023-05-13T05:58:58.933Z,2.65
2023-05-13T06:01:36.566Z,2.25
2023-05-13T06:04:04.694Z,2.45
2023-05-13T06:06:32.414Z,3.17
2023-05-13T06:09:00.174Z,2.47
2023-05-13T06:11:27.953Z,2.70
2023-05-13T06:13:55.023Z,2.95
2023-05-13T06:16:22.018Z,2.13
2023-05-13T06:18:49.527Z,2.35
2023-05-13T06:21:16.563Z,2.60
2023-05-13T06:23:43.927Z,2.70
2023-05-13T06:26:10.996Z,2.50
2023-05-13T06:28:38.131Z,2.40
2023-05-13T06:31:05.247Z,2.22
2023-05-13T06:33:32.263Z,2.85
2023-05-13T06:35:59.340Z,2.90
2023-05-13T06:38:27.348Z,2.75
2023-05-13T06:40:57.502Z,3.15
2023-05-13T06:43:30.520Z,2.60
2023-05-13T06:45:59.966Z,2.45
2023-05-13T06:48:28.467Z,2.40
2023-05-13T06:50:55.482Z,2.85
2023-05-13T06:53:25.652Z,2.88
2023-05-13T06:55:52.977Z,3.15
2023-05-13T06:58:20.548Z,2.65
2023-05-13T07:00:47.515Z,2.42
2023-05-13T07:03:15.048Z,2.78
2023-05-13T07:05:42.200Z,2.70
2023-05-13T07:08:09.496Z,2.70
2023-05-13T07:10:36.953Z,2.38
2023-05-13T07:13:04.522Z,2.60
2023-05-13T07:15:31.894Z,2.60
2023-05-13T07:17:59.319Z,3.15
2023-05-13T07:20:26.913Z,2.63
2023-05-13T07:22:53.982Z,2.42
2023-05-13T07:25:21.060Z,2.05
2023-05-13T07:27:48.554Z,2.85
2023-05-13T07:30:15.947Z,3.15
2023-05-13T07:32:43.480Z,2.33
2023-05-13T07:35:11.117Z,2.55
2023-05-13T07:37:38.144Z,3.00
2023-05-13T07:40:06.973Z,2.97
2023-05-13T07:42:33.976Z,2.78
2023-05-13T07:45:00.901Z,3.40
2023-05-13T07:47:29.070Z,2.60
2023-05-13T07:50:15.693Z,2.88
2023-05-13T07:53:01.554Z,2.67
2023-05-13T07:55:32.376Z,2.40
2023-05-13T07:58:07.080Z,2.95
2023-05-13T08:05:48.151Z,2.55
2023-05-13T08:08:15.272Z,2.78
2023-05-13T08:10:42.220Z,2.40
2023-05-13T08:13:09.197Z,3.00
2023-05-13T08:15:37.308Z,2.88
2023-05-13T08:18:04.397Z,2.38
2023-05-13T08:20:31.782Z,2.67
2023-05-13T08:22:59.249Z,2.83
2023-05-13T08:25:26.376Z,2.65
2023-05-13T08:27:54.274Z,2.30
2023-05-13T08:30:24.096Z,2.78
2023-05-13T08:32:51.491Z,2.65
2023-05-13T08:35:18.495Z,2.60
2023-05-13T08:37:45.490Z,2.65
2023-05-13T08:40:12.621Z,2.28
2023-05-13T08:42:40.956Z,2.92
2023-05-13T08:45:09.655Z,2.40
2023-05-13T08:47:53.178Z,2.70
2023-05-13T08:50:21.697Z,2.78
2023-05-13T08:52:52.442Z,2.42
2023-05-13T08:55:20.119Z,2.50
2023-05-13T08:57:47.305Z,2.67
2023-05-13T09:00:14.743Z,2.70
2023-05-13T09:02:42.327Z,2.58
2023-05-13T09:05:10.531Z,2.38
2023-05-13T09:07:38.804Z,2.55
2023-05-13T09:10:07.725Z,2.47
2023-05-13T09:12:55.554Z,2.60
2023-05-13T09:15:26.746Z,2.45
2023-05-13T09:18:02.325Z,2.47
2023-05-13T09:20:30.585Z,2.72
2023-05-13T09:23:05.508Z,2.88
2023-05-13T09:25:33.240Z,2.50
2023-05-13T09:28:06.257Z,3.30
2023-05-13T09:30:40.390Z,2.92
2023-05-13T09:33:14.375Z,2.70
2023-05-13T09:35:43.398Z,3.05
2023-05-13T09:38:22.374Z,2.63
2023-05-13T09:41:00.117Z,2.47
2023-05-13T09:43:31.582Z,2.22
2023-05-13T09:46:04.544Z,2.67
2023-05-13T09:48:35.469Z,2.33
2023-05-13T09:51:02.685Z,2.38
2023-05-13T09:53:29.656Z,3.05
2023-05-13T09:56:00.060Z,2.58
2023-05-13T09:58:30.586Z,2.95
2023-05-13T10:00:58.814Z,2.35
2023-05-13T10:03:27.631Z,2.20
2023-05-13T10:05:55.198Z,2.55
2023-05-13T10:08:23.345Z,3.40
2023-05-13T10:10:54.707Z,2.78
2023-05-13T10:13:24.324Z,1.88
2023-05-13T10:15:55.967Z,2.20
2023-05-13T10:18:24.311Z,2.65
2023-05-13T10:20:53.728Z,2.80
2023-05-13T10:23:22.534Z,2.40
2023-05-13T10:25:51.999Z,2.70
2023-05-13T10:28:19.528Z,2.20
2023-05-13T10:30:54.136Z,2.72
2023-05-13T10:33:21.703Z,2.60
2023-05-13T10:36:40.098Z,3.78
2023-05-13T10:39:19.626Z,2.42
2023-05-13T10:42:26.666Z,2.30
2023-05-13T10:44:58.562Z,2.22
2023-05-13T10:47:27.092Z,2.50
2023-05-13T10:49:54.175Z,2.50
2023-05-13T10:52:21.621Z,2.17
2023-05-13T10:55:02.801Z,2.65
2023-05-13T10:57:36.961Z,2.65
2023-05-13T11:00:18.775Z,2.88
2023-05-13T11:02:45.956Z,3.83
2023-05-13T11:05:21.174Z,2.83
2023-05-13T11:07:58.748Z,3.30
2023-05-13T11:10:30.605Z,3.60
2023-05-13T11:13:15.893Z,3.60
2023-05-13T11:15:50.618Z,2.80
2023-05-13T11:18:17.731Z,3.20
2023-05-13T11:20:53.597Z,3.08
2023-05-13T11:23:21.528Z,2.30
2023-05-13T11:26:16.837Z,2.70
2023-05-13T11:29:04.005Z,3.00
2023-05-13T11:32:05.223Z,2.95
2023-05-13T11:34:33.823Z,2.53
2023-05-13T11:37:03.978Z,3.33
2023-05-13T11:39:32.450Z,2.50
2023-05-13T11:42:01.801Z,2.83
2023-05-13T11:44:29.028Z,3.05
2023-05-13T11:46:58.860Z,2.45
2023-05-13T11:49:43.129Z,2.70
2023-05-13T11:52:21.119Z,3.22
2023-05-13T11:54:54.639Z,2.88
2023-05-13T11:57:24.894Z,2.65
2023-05-13T11:59:57.645Z,2.58
2023-05-13T12:02:35.345Z,3.72
2023-05-13T12:05:05.637Z,3.88
2023-05-13T12:07:33.919Z,2.65
2023-05-13T12:10:03.784Z,3.03
2023-05-13T12:12:34.724Z,3.03
2023-05-13T12:15:14.537Z,2.80
2023-05-13T12:17:42.170Z,2.90
2023-05-13T12:20:21.502Z,3.58
2023-05-13T12:22:48.472Z,2.63
2023-05-13T12:25:51.352Z,3.03
2023-05-13T12:28:24.328Z,2.88
2023-05-13T12:31:03.172Z,3.83
2023-05-13T12:33:33.906Z,3.28
2023-05-13T12:36:26.081Z,2.58
2023-05-13T12:39:11.057Z,3.00
2023-05-13T12:41:42.387Z,3.35
2023-05-13T12:44:13.805Z,2.95
2023-05-13T12:46:51.511Z,3.05
2023-05-13T12:49:18.709Z,3.10
2023-05-13T12:51:45.714Z,3.40
2023-05-13T12:54:13.164Z,3.40
2023-05-13T12:56:40.496Z,3.22
2023-05-13T12:59:08.913Z,2.92
2023-05-13T13:01:39.229Z,2.97
2023-05-13T13:04:07.482Z,3.33
2023-05-13T13:06:34.601Z,3.00
2023-05-13T13:09:01.656Z,2.95
2023-05-13T13:11:28.698Z,3.28
2023-05-13T13:13:55.640Z,3.65
2023-05-13T13:16:23.189Z,3.15
2023-05-13T13:18:53.222Z,3.30
2023-05-13T13:21:22.002Z,3.38
2023-05-13T13:23:49.126Z,2.58
2023-05-13T13:26:16.153Z,2.95
2023-05-13T13:28:43.257Z,3.30
2023-05-13T13:31:11.812Z,3.08
2023-05-13T13:33:38.839Z,3.25
2023-05-13T13:36:06.234Z,3.70
2023-05-13T13:38:33.228Z,3.03
2023-05-13T13:41:00.290Z,3.97
2023-05-13T13:43:28.098Z,3.40
2023-05-13T13:45:55.440Z,3.40
2023-05-13T13:48:23.118Z,3.15
2023-05-13T13:50:52.134Z,3.10
2023-05-13T13:53:20.023Z,3.10
2023-05-13T13:55:47.008Z,3.00
2023-05-13T13:58:17.430Z,3.25
2023-05-13T14:00:44.870Z,3.17
2023-05-13T14:03:12.322Z,2.95
2023-05-13T14:05:39.593Z,3.03
2023-05-13T14:08:06.633Z,2.60
2023-05-13T14:10:34.070Z,3.45
2023-05-13T14:13:01.407Z,3.28
2023-05-13T14:15:30.392Z,2.95
2023-05-13T14:17:58.295Z,2.60
2023-05-13T14:20:25.344Z,3.30
2023-05-13T14:22:52.338Z,3.20
2023-05-13T14:25:19.331Z,2.70
2023-05-13T14:27:46.351Z,2.78
2023-05-13T14:30:13.602Z,2.70
2023-05-13T14:32:45.388Z,3.10
2023-05-13T14:37:39.679Z,2.70
2023-05-13T14:40:07.590Z,3.78
2023-05-13T14:42:37.221Z,2.47
2023-05-13T14:45:04.715Z,2.63
2023-05-13T14:47:31.811Z,2.97
2023-05-13T14:49:58.872Z,2.75
2023-05-13T14:52:25.998Z,2.72
2023-05-13T14:54:53.965Z,2.10
2023-05-13T14:57:21.283Z,2.40
2023-05-13T14:59:48.329Z,3.10
2023-05-13T15:02:17.404Z,2.70
2023-05-13T15:04:45.417Z,2.85
2023-05-13T15:07:12.878Z,2.70
2023-05-13T15:09:39.975Z,2.08
2023-05-13T15:12:08.105Z,2.70
2023-05-13T15:14:37.673Z,2.42
2023-05-13T15:17:06.001Z,2.53
2023-05-13T15:19:33.138Z,2.42
2023-05-13T15:22:00.175Z,2.40
2023-05-13T15:24:27.159Z,2.47
2023-05-13T15:26:54.151Z,2.67
2023-05-13T15:29:21.143Z,2.78
2023-05-13T15:31:51.299Z,2.65
2023-05-13T15:34:18.277Z,3.20
2023-05-13T15:36:45.904Z,3.22
2023-05-13T15:39:12.891Z,2.95
2023-05-13T15:41:40.443Z,2.20
2023-05-13T15:44:07.394Z,3.15
2023-05-13T15:46:34.676Z,2.75
2023-05-13T15:49:02.132Z,3.22
2023-05-13T15:51:29.403Z,3.08
2023-05-13T15:53:56.491Z,2.42
2023-05-13T15:56:25.126Z,2.83
2023-05-13T15:58:52.477Z,2.58
2023-05-13T16:01:19.442Z,2.75
2023-05-13T16:03:46.855Z,3.50
2023-05-13T16:06:19.732Z,3.15
2023-05-13T16:08:48.575Z,3.03
2023-05-13T16:11:15.673Z,3.20
2023-05-13T16:13:45.740Z,2.63
2023-05-13T16:16:12.748Z,3.10
2023-05-13T16:18:40.061Z,3.20
2023-05-13T16:21:07.199Z,2.90
2023-05-13T16:23:34.299Z,2.90
2023-05-13T16:26:01.357Z,2.70
2023-05-13T16:28:29.471Z,2.67
2023-05-13T16:30:58.677Z,2.72
2023-05-13T16:36:00.341Z,2.40
2023-05-13T16:38:27.401Z,2.90
2023-05-13T16:40:54.455Z,2.53
2023-05-13T16:43:22.126Z,3.00
2023-05-13T16:45:53.500Z,2.35
2023-05-13T16:48:21.290Z,3.13
2023-05-13T16:50:51.051Z,2.95
2023-05-13T16:53:18.556Z,2.80
2023-05-13T16:55:45.644Z,2.97
2023-05-13T16:58:12.798Z,3.03
2023-05-13T17:00:40.103Z,3.63
2023-05-13T17:03:07.877Z,2.60
2023-05-13T17:05:36.539Z,2.97
2023-05-13T17:08:06.707Z,2.38
2023-05-13T17:10:33.808Z,2.40
2023-05-13T17:13:01.114Z,2.42
2023-05-13T17:15:28.611Z,2.58
2023-05-13T17:17:55.783Z,2.65
2023-05-13T17:20:24.336Z,2.67
2023-05-13T17:22:51.629Z,2.90
2023-05-13T17:25:18.730Z,2.40
2023-05-13T17:27:45.805Z,2.70
2023-05-13T17:30:13.738Z,2.33
2023-05-13T17:32:41.146Z,2.78
2023-05-13T17:35:09.136Z,3.40
2023-05-13T17:37:36.430Z,2.75
2023-05-13T17:40:08.221Z,3.20
2023-05-13T17:42:35.690Z,3.15
2023-05-13T17:45:03.429Z,3.30
2023-05-13T17:47:31.207Z,2.65
2023-05-13T17:49:58.206Z,3.53
2023-05-13T17:52:25.308Z,3.00
2023-05-13T17:54:52.311Z,2.40
2023-05-13T17:57:19.688Z,2.60
2023-05-13T17:59:46.623Z,2.78
2023-05-13T18:02:13.769Z,2.92
2023-05-13T18:04:41.109Z,3.00
2023-05-13T18:07:08.236Z,3.40
2023-05-13T18:09:35.910Z,4.13
2023-05-13T18:12:03.270Z,4.00
2023-05-13T18:14:32.311Z,4.35
2023-05-13T18:16:59.919Z,4.97
2023-05-13T18:19:26.984Z,4.53
2023-05-13T18:21:53.955Z,3.65
2023-05-13T18:24:21.188Z,3.90
2023-05-13T18:26:48.178Z,4.35
2023-05-13T18:29:15.114Z,3.20
2023-05-13T18:31:42.334Z,3.25
2023-05-13T18:34:09.750Z,2.95
2023-05-13T18:36:36.852Z,2.65
2023-05-13T18:39:03.860Z,2.70
2023-05-13T18:41:31.191Z,2.60
2023-05-13T18:43:58.215Z,2.88
2023-05-13T18:46:25.320Z,2.70
2023-05-13T18:48:52.403Z,2.97
2023-05-13T18:51:20.912Z,3.17
2023-05-13T18:53:48.354Z,3.17
2023-05-13T18:56:16.128Z,2.97
2023-05-13T18:58:45.765Z,2.85
2023-05-13T19:01:15.472Z,2.63
2023-05-13T19:03:43.006Z,2.70
2023-05-13T19:06:10.731Z,2.72
2023-05-13T19:08:37.684Z,2.65
2023-05-13T19:11:04.756Z,2.72
2023-05-13T19:13:43.425Z,2.85
2023-05-13T19:16:14.249Z,2.30
2023-05-13T19:18:41.276Z,2.60
2023-05-13T19:21:08.339Z,2.30
2023-05-13T19:23:37.366Z,2.90
2023-05-13T19:26:04.342Z,2.22
2023-05-13T19:28:31.900Z,2.47
2023-05-13T19:30:58.878Z,2.00
2023-05-13T19:33:26.094Z,2.28
2023-05-13T19:35:53.157Z,2.08
2023-05-13T19:38:21.443Z,2.63
2023-05-13T19:40:52.048Z,2.38
2023-05-13T19:43:19.331Z,2.95
2023-05-13T19:45:46.647Z,2.50
2023-05-13T19:48:14.033Z,2.35
2023-05-13T19:50:42.396Z,2.65
2023-05-13T19:53:09.437Z,2.80
2023-05-13T19:55:36.609Z,2.50
2023-05-13T19:58:03.743Z,2.78
2023-05-13T20:00:31.372Z,2.60
2023-05-13T20:02:58.528Z,2.38
2023-05-13T20:05:25.558Z,2.28
2023-05-13T20:07:52.488Z,2.60
2023-05-13T20:10:19.483Z,2.58
2023-05-13T20:12:46.428Z,2.53
2023-05-13T20:15:13.404Z,2.90
2023-05-13T20:17:40.961Z,2.67
2023-05-13T20:20:08.680Z,2.95
2023-05-13T20:22:35.698Z,2.90
2023-05-13T20:25:02.828Z,3.25
2023-05-13T20:27:30.016Z,2.97
2023-05-13T20:30:00.036Z,2.92
2023-05-13T20:32:27.566Z,2.85
2023-05-13T20:34:54.710Z,2.53
2023-05-13T20:37:23.921Z,2.72
2023-05-13T20:39:52.054Z,2.40
2023-05-13T20:42:21.592Z,3.20
2023-05-13T20:44:48.715Z,3.13
2023-05-13T20:47:16.649Z,3.95
2023-05-13T20:49:43.931Z,3.88
2023-05-13T20:52:11.507Z,4.10
2023-05-13T20:54:38.933Z,4.00
2023-05-13T20:57:06.491Z,3.70
2023-05-13T20:59:33.585Z,3.60
2023-05-13T21:02:00.644Z,3.10
2023-05-13T21:04:27.923Z,2.38
2023-05-13T21:06:54.917Z,2.50
2023-05-13T21:09:21.921Z,2.88
2023-05-13T21:11:49.117Z,2.88
2023-05-13T21:14:16.144Z,3.30
2023-05-13T21:16:43.583Z,3.10
2023-05-13T21:19:22.789Z,3.20
2023-05-13T21:21:50.113Z,3.30
2023-05-13T21:24:18.736Z,2.92
2023-05-13T21:26:46.655Z,3.28
2023-05-13T21:29:13.997Z,2.70
2023-05-13T21:31:41.221Z,3.25
2023-05-13T21:34:08.393Z,2.63
2023-05-13T21:36:39.314Z,3.10
2023-05-13T21:39:07.619Z,2.92
2023-05-13T21:41:34.613Z,3.28
2023-05-13T21:44:01.769Z,2.60
2023-05-13T21:46:28.871Z,2.50
2023-05-13T21:48:55.913Z,2.33
2023-05-13T21:51:23.163Z,3.20
2023-05-13T21:53:50.169Z,3.30
2023-05-13T21:56:17.214Z,3.25
2023-05-13T21:58:44.690Z,3.05
2023-05-13T22:01:12.234Z,2.97
2023-05-13T22:03:41.708Z,3.10
2023-05-13T22:06:08.686Z,3.38
2023-05-13T22:08:35.664Z,3.22
2023-05-13T22:11:02.616Z,2.97
2023-05-13T22:13:29.654Z,3.67
2023-05-13T22:15:56.775Z,3.10
2023-05-13T22:18:24.159Z,3.25
2023-05-13T22:20:51.262Z,4.10
2023-05-13T22:23:18.214Z,2.72
2023-05-13T22:25:45.253Z,2.90
2023-05-13T22:28:12.214Z,2.75
2023-05-13T22:30:39.229Z,3.00
2023-05-13T22:33:06.563Z,3.08
2023-05-13T22:35:36.439Z,2.95
2023-05-13T22:38:04.619Z,3.28
2023-05-13T22:40:31.645Z,3.08
2023-05-13T22:42:58.626Z,2.55
2023-05-13T22:45:25.691Z,2.55
2023-05-13T22:47:52.843Z,3.15
2023-05-13T22:50:20.352Z,2.35
2023-05-13T22:52:47.356Z,2.90
2023-05-13T22:55:14.712Z,2.00
2023-05-13T22:57:42.256Z,2.50
2023-05-13T23:00:12.626Z,2.53
2023-05-13T23:02:39.726Z,2.60
2023-05-13T23:05:07.424Z,2.50
2023-05-13T23:07:34.415Z,2.13
2023-05-13T23:10:01.391Z,2.92
2023-05-13T23:12:28.377Z,2.78
2023-05-13T23:14:55.445Z,2.58
2023-05-13T23:17:22.421Z,2.63
2023-05-13T23:19:49.402Z,2.60
2023-05-13T23:22:16.473Z,3.33
2023-05-13T23:24:43.640Z,2.92
2023-05-13T23:27:11.420Z,3.80
2023-05-13T23:29:38.516Z,3.88
2023-05-13T23:32:06.947Z,2.85
2023-05-13T23:34:34.259Z,2.80
2023-05-13T23:37:01.282Z,3.03
2023-05-13T23:39:28.287Z,2.63
2023-05-13T23:41:55.261Z,2.75
2023-05-13T23:44:22.227Z,2.83
2023-05-13T23:46:49.638Z,3.38
2023-05-13T23:49:17.314Z,3.28
2023-05-13T23:51:44.426Z,3.75
2023-05-13T23:54:11.431Z,3.47
2023-05-13T23:56:38.412Z,3.53
2023-05-13T23:59:05.721Z,3.53
